sensor_id;sensor_type;location;lat;lon;timestamp;pressure;altitude;pressure_sealevel;temperature;humidity
78317;BME280;67572;50.930;18.276;2024-02-28T00:02:43;98988.97;;;9.44;84.03
78317;BME280;67572;50.930;18.276;2024-02-28T00:05:47;98990.16;;;9.40;84.11
78317;BME280;67572;50.930;18.276;2024-02-28T00:08:52;98992.75;;;9.28;84.12
78317;BME280;67572;50.930;18.276;2024-02-28T00:11:56;98989.03;;;9.57;83.64
78317;BME280;67572;50.930;18.276;2024-02-28T00:15:00;98985.22;;;9.74;82.90
78317;BME280;67572;50.930;18.276;2024-02-28T00:18:04;98990.53;;;9.61;83.18
78317;BME280;67572;50.930;18.276;2024-02-28T00:21:07;98990.94;;;9.28;83.20
78317;BME280;67572;50.930;18.276;2024-02-28T00:24:12;98997.25;;;9.40;84.55
78317;BME280;67572;50.930;18.276;2024-02-28T00:27:15;98990.97;;;9.01;86.84
78317;BME280;67572;50.930;18.276;2024-02-28T00:30:19;98997.41;;;8.97;88.13
78317;BME280;67572;50.930;18.276;2024-02-28T00:33:22;99000.31;;;9.07;88.15
78317;BME280;67572;50.930;18.276;2024-02-28T00:36:25;99003.75;;;8.95;87.70
78317;BME280;67572;50.930;18.276;2024-02-28T00:39:38;99001.13;;;8.80;88.81
78317;BME280;67572;50.930;18.276;2024-02-28T00:42:42;99007.06;;;8.84;88.58
78317;BME280;67572;50.930;18.276;2024-02-28T00:45:45;99004.41;;;8.98;88.83
78317;BME280;67572;50.930;18.276;2024-02-28T00:48:49;99008.44;;;8.77;89.53
78317;BME280;67572;50.930;18.276;2024-02-28T00:51:52;99003.44;;;8.99;89.38
78317;BME280;67572;50.930;18.276;2024-02-28T00:54:57;98997.22;;;9.00;88.25
78317;BME280;67572;50.930;18.276;2024-02-28T00:58:01;98996.16;;;9.03;88.10
78317;BME280;67572;50.930;18.276;2024-02-28T01:01:05;98999.31;;;8.95;88.03
78317;BME280;67572;50.930;18.276;2024-02-28T01:04:09;98987.63;;;8.71;89.22
78317;BME280;67572;50.930;18.276;2024-02-28T01:07:13;98985.44;;;9.04;88.79
78317;BME280;67572;50.930;18.276;2024-02-28T01:10:18;98989.50;;;9.10;87.78
78317;BME280;67572;50.930;18.276;2024-02-28T01:13:21;98995.22;;;9.31;87.43
78317;BME280;67572;50.930;18.276;2024-02-28T01:16:25;98990.25;;;9.39;86.44
78317;BME280;67572;50.930;18.276;2024-02-28T01:19:29;98986.25;;;9.19;86.66
78317;BME280;67572;50.930;18.276;2024-02-28T01:22:33;98978.25;;;9.33;86.00
78317;BME280;67572;50.930;18.276;2024-02-28T01:25:38;98986.75;;;9.11;85.91
78317;BME280;67572;50.930;18.276;2024-02-28T01:28:42;98980.66;;;9.24;85.98
78317;BME280;67572;50.930;18.276;2024-02-28T01:31:45;98983.31;;;9.24;86.20
78317;BME280;67572;50.930;18.276;2024-02-28T01:34:49;98982.66;;;8.93;86.15
78317;BME280;67572;50.930;18.276;2024-02-28T01:37:52;98982.50;;;8.68;89.79
78317;BME280;67572;50.930;18.276;2024-02-28T01:40:57;98980.03;;;8.79;90.41
78317;BME280;67572;50.930;18.276;2024-02-28T01:44:00;98969.97;;;9.11;88.58
78317;BME280;67572;50.930;18.276;2024-02-28T01:47:03;98974.84;;;9.04;88.80
78317;BME280;67572;50.930;18.276;2024-02-28T01:50:07;98971.84;;;9.23;87.26
78317;BME280;67572;50.930;18.276;2024-02-28T01:53:12;98965.59;;;9.24;87.54
78317;BME280;67572;50.930;18.276;2024-02-28T01:56:23;98966.44;;;9.25;86.04
78317;BME280;67572;50.930;18.276;2024-02-28T01:59:28;98966.50;;;9.37;86.33
78317;BME280;67572;50.930;18.276;2024-02-28T02:02:32;98965.59;;;9.37;85.40
78317;BME280;67572;50.930;18.276;2024-02-28T02:05:36;98969.44;;;9.06;86.63
78317;BME280;67572;50.930;18.276;2024-02-28T02:08:40;98973.06;;;8.90;87.95
78317;BME280;67572;50.930;18.276;2024-02-28T02:11:45;98974.53;;;8.68;89.50
78317;BME280;67572;50.930;18.276;2024-02-28T02:14:49;98989.03;;;8.33;91.81
78317;BME280;67572;50.930;18.276;2024-02-28T02:17:52;98989.84;;;7.91;94.56
78317;BME280;67572;50.930;18.276;2024-02-28T02:21:02;98979.72;;;7.98;95.40
78317;BME280;67572;50.930;18.276;2024-02-28T02:24:09;98991.38;;;7.95;96.31
78317;BME280;67572;50.930;18.276;2024-02-28T02:27:12;98993.63;;;7.87;97.18
78317;BME280;67572;50.930;18.276;2024-02-28T02:30:16;98992.38;;;7.93;97.72
78317;BME280;67572;50.930;18.276;2024-02-28T02:33:19;98988.50;;;7.84;98.28
78317;BME280;67572;50.930;18.276;2024-02-28T02:36:23;98987.38;;;7.88;98.86
78317;BME280;67572;50.930;18.276;2024-02-28T02:39:28;98981.22;;;7.73;99.23
78317;BME280;67572;50.930;18.276;2024-02-28T02:42:32;98984.53;;;7.47;99.90
78317;BME280;67572;50.930;18.276;2024-02-28T02:45:35;98977.44;;;7.92;99.23
78317;BME280;67572;50.930;18.276;2024-02-28T02:48:38;98984.44;;;7.78;99.10
78317;BME280;67572;50.930;18.276;2024-02-28T02:51:42;98983.09;;;7.71;99.87
78317;BME280;67572;50.930;18.276;2024-02-28T02:54:46;98985.19;;;7.81;100.00
78317;BME280;67572;50.930;18.276;2024-02-28T02:57:50;98985.78;;;8.00;99.05
78317;BME280;67572;50.930;18.276;2024-02-28T03:00:53;98988.41;;;7.86;99.24
78317;BME280;67572;50.930;18.276;2024-02-28T03:03:57;98993.22;;;7.79;98.99
78317;BME280;67572;50.930;18.276;2024-02-28T03:07:00;98996.72;;;7.79;99.23
78317;BME280;67572;50.930;18.276;2024-02-28T03:10:06;98994.28;;;7.91;98.30
78317;BME280;67572;50.930;18.276;2024-02-28T03:13:10;98998.97;;;7.86;98.73
78317;BME280;67572;50.930;18.276;2024-02-28T03:16:13;98986.66;;;7.70;98.97
78317;BME280;67572;50.930;18.276;2024-02-28T03:19:16;98994.50;;;7.58;99.82
78317;BME280;67572;50.930;18.276;2024-02-28T03:22:19;98989.66;;;7.50;100.00
78317;BME280;67572;50.930;18.276;2024-02-28T03:25:24;98993.31;;;7.47;100.00
78317;BME280;67572;50.930;18.276;2024-02-28T03:28:27;98996.84;;;7.62;100.00
78317;BME280;67572;50.930;18.276;2024-02-28T03:31:31;98996.19;;;7.59;100.00
78317;BME280;67572;50.930;18.276;2024-02-28T03:34:34;98998.13;;;7.71;100.00
78317;BME280;67572;50.930;18.276;2024-02-28T03:37:37;99002.38;;;7.43;100.00
78317;BME280;67572;50.930;18.276;2024-02-28T03:40:42;98999.94;;;7.55;100.00
78317;BME280;67572;50.930;18.276;2024-02-28T03:43:45;99002.25;;;7.61;100.00
78317;BME280;67572;50.930;18.276;2024-02-28T03:46:49;99000.22;;;7.80;99.85
78317;BME280;67572;50.930;18.276;2024-02-28T03:49:52;98992.44;;;7.77;98.82
78317;BME280;67572;50.930;18.276;2024-02-28T03:52:59;99004.47;;;7.83;99.05
78317;BME280;67572;50.930;18.276;2024-02-28T03:56:05;99004.78;;;7.62;98.56
78317;BME280;67572;50.930;18.276;2024-02-28T03:59:08;99007.38;;;7.78;98.40
78317;BME280;67572;50.930;18.276;2024-02-28T04:02:12;99017.97;;;7.78;99.11
78317;BME280;67572;50.930;18.276;2024-02-28T04:05:15;99017.75;;;7.67;98.30
78317;BME280;67572;50.930;18.276;2024-02-28T04:08:19;99021.06;;;7.70;99.21
78317;BME280;67572;50.930;18.276;2024-02-28T04:11:23;99022.31;;;7.65;98.76
78317;BME280;67572;50.930;18.276;2024-02-28T04:14:27;99023.06;;;7.67;99.30
78317;BME280;67572;50.930;18.276;2024-02-28T04:17:30;99025.16;;;7.76;99.12
78317;BME280;67572;50.930;18.276;2024-02-28T04:20:34;99026.59;;;7.51;98.95
78317;BME280;67572;50.930;18.276;2024-02-28T04:23:37;99032.75;;;7.82;98.19
78317;BME280;67572;50.930;18.276;2024-02-28T04:26:42;99035.25;;;7.69;98.24
78317;BME280;67572;50.930;18.276;2024-02-28T04:29:45;99039.47;;;7.58;98.23
78317;BME280;67572;50.930;18.276;2024-02-28T04:32:49;99037.28;;;7.80;98.27
78317;BME280;67572;50.930;18.276;2024-02-28T04:35:53;99036.44;;;7.79;98.32
78317;BME280;67572;50.930;18.276;2024-02-28T04:38:56;99044.09;;;7.84;98.01
78317;BME280;67572;50.930;18.276;2024-02-28T04:42:01;99039.72;;;7.83;97.77
78317;BME280;67572;50.930;18.276;2024-02-28T04:45:05;99046.63;;;7.71;98.51
78317;BME280;67572;50.930;18.276;2024-02-28T04:48:08;99047.06;;;7.64;98.80
78317;BME280;67572;50.930;18.276;2024-02-28T04:51:15;99052.81;;;7.70;99.15
78317;BME280;67572;50.930;18.276;2024-02-28T04:54:19;99043.69;;;7.76;98.60
78317;BME280;67572;50.930;18.276;2024-02-28T04:57:24;99055.06;;;7.62;98.44
78317;BME280;67572;50.930;18.276;2024-02-28T05:00:27;99050.56;;;7.94;98.44
78317;BME280;67572;50.930;18.276;2024-02-28T05:03:30;99055.00;;;7.94;96.88
78317;BME280;67572;50.930;18.276;2024-02-28T05:06:34;99059.78;;;8.17;96.27
78317;BME280;67572;50.930;18.276;2024-02-28T05:09:41;99064.03;;;8.20;95.99
78317;BME280;67572;50.930;18.276;2024-02-28T05:12:46;99068.53;;;8.03;96.43
78317;BME280;67572;50.930;18.276;2024-02-28T05:15:49;99070.38;;;8.17;96.07
78317;BME280;67572;50.930;18.276;2024-02-28T05:18:53;99067.25;;;8.25;95.33
78317;BME280;67572;50.930;18.276;2024-02-28T05:21:57;99076.78;;;8.13;94.22
78317;BME280;67572;50.930;18.276;2024-02-28T05:25:00;99079.53;;;8.12;94.37
78317;BME280;67572;50.930;18.276;2024-02-28T05:28:05;99075.25;;;8.39;92.83
78317;BME280;67572;50.930;18.276;2024-02-28T05:31:20;99076.41;;;8.64;91.57
78317;BME280;67572;50.930;18.276;2024-02-28T05:34:24;99070.91;;;8.81;91.22
78317;BME280;67572;50.930;18.276;2024-02-28T05:37:27;99071.53;;;8.99;89.38
78317;BME280;67572;50.930;18.276;2024-02-28T05:40:31;99081.50;;;8.95;88.85
78317;BME280;67572;50.930;18.276;2024-02-28T05:43:36;99083.88;;;9.00;88.62
78317;BME280;67572;50.930;18.276;2024-02-28T05:46:40;99091.75;;;8.73;89.66
78317;BME280;67572;50.930;18.276;2024-02-28T05:49:44;99086.19;;;8.33;91.57
78317;BME280;67572;50.930;18.276;2024-02-28T05:52:47;99099.97;;;8.40;92.61
78317;BME280;67572;50.930;18.276;2024-02-28T05:55:50;99093.72;;;8.11;93.24
78317;BME280;67572;50.930;18.276;2024-02-28T05:58:57;99098.16;;;8.69;92.56
78317;BME280;67572;50.930;18.276;2024-02-28T06:02:00;99098.16;;;8.69;91.53
78317;BME280;67572;50.930;18.276;2024-02-28T06:05:04;99100.34;;;8.48;91.67
78317;BME280;67572;50.930;18.276;2024-02-28T06:08:07;99106.50;;;8.63;91.06
78317;BME280;67572;50.930;18.276;2024-02-28T06:11:11;99102.53;;;8.70;91.06
78317;BME280;67572;50.930;18.276;2024-02-28T06:14:16;99107.75;;;8.71;90.54
78317;BME280;67572;50.930;18.276;2024-02-28T06:17:20;99109.19;;;8.77;90.11
78317;BME280;67572;50.930;18.276;2024-02-28T06:20:23;99111.34;;;8.84;89.77
78317;BME280;67572;50.930;18.276;2024-02-28T06:23:30;99113.69;;;8.75;89.57
78317;BME280;67572;50.930;18.276;2024-02-28T06:26:33;99115.31;;;8.92;89.64
78317;BME280;67572;50.930;18.276;2024-02-28T06:29:38;99115.81;;;8.70;90.23
78317;BME280;67572;50.930;18.276;2024-02-28T06:32:42;99121.25;;;8.52;91.20
78317;BME280;67572;50.930;18.276;2024-02-28T06:35:46;99125.63;;;8.68;90.70
78317;BME280;67572;50.930;18.276;2024-02-28T06:38:50;99127.59;;;8.20;92.23
78317;BME280;67572;50.930;18.276;2024-02-28T06:41:54;99130.63;;;8.28;93.97
78317;BME280;67572;50.930;18.276;2024-02-28T06:44:59;99145.09;;;8.22;94.11
78317;BME280;67572;50.930;18.276;2024-02-28T06:48:03;99149.34;;;8.41;93.56
78317;BME280;67572;50.930;18.276;2024-02-28T06:51:06;99140.03;;;8.78;92.46
78317;BME280;67572;50.930;18.276;2024-02-28T06:54:09;99146.59;;;8.42;92.53
78317;BME280;67572;50.930;18.276;2024-02-28T06:57:13;99146.53;;;8.28;92.83
78317;BME280;67572;50.930;18.276;2024-02-28T07:00:19;99150.00;;;8.14;94.67
78317;BME280;67572;50.930;18.276;2024-02-28T07:03:22;99156.03;;;8.32;94.51
78317;BME280;67572;50.930;18.276;2024-02-28T07:06:25;99162.84;;;8.36;93.93
78317;BME280;67572;50.930;18.276;2024-02-28T07:09:29;99155.03;;;8.19;94.43
78317;BME280;67572;50.930;18.276;2024-02-28T07:12:34;99161.66;;;8.26;94.75
78317;BME280;67572;50.930;18.276;2024-02-28T07:15:39;99160.59;;;8.44;94.84
78317;BME280;67572;50.930;18.276;2024-02-28T07:18:43;99151.91;;;8.42;94.79
78317;BME280;67572;50.930;18.276;2024-02-28T07:21:47;99160.91;;;8.24;95.23
78317;BME280;67572;50.930;18.276;2024-02-28T07:24:50;99163.19;;;8.30;95.46
78317;BME280;67572;50.930;18.276;2024-02-28T07:27:54;99172.06;;;8.29;96.13
78317;BME280;67572;50.930;18.276;2024-02-28T07:31:01;99172.88;;;8.15;96.71
78317;BME280;67572;50.930;18.276;2024-02-28T07:34:04;99171.38;;;8.11;97.51
78317;BME280;67572;50.930;18.276;2024-02-28T07:37:08;99170.88;;;8.04;98.41
78317;BME280;67572;50.930;18.276;2024-02-28T07:40:11;99177.41;;;8.13;97.94
78317;BME280;67572;50.930;18.276;2024-02-28T07:43:15;99183.75;;;8.11;99.12
78317;BME280;67572;50.930;18.276;2024-02-28T07:46:19;99186.75;;;8.04;98.84
78317;BME280;67572;50.930;18.276;2024-02-28T07:49:25;99190.94;;;8.09;99.10
78317;BME280;67572;50.930;18.276;2024-02-28T07:52:29;99184.44;;;7.98;99.41
78317;BME280;67572;50.930;18.276;2024-02-28T07:55:33;99194.22;;;7.82;99.69
78317;BME280;67572;50.930;18.276;2024-02-28T07:58:36;99192.91;;;7.89;100.00
78317;BME280;67572;50.930;18.276;2024-02-28T08:01:41;99194.25;;;8.12;100.00
78317;BME280;67572;50.930;18.276;2024-02-28T08:04:45;99191.91;;;8.22;100.00
78317;BME280;67572;50.930;18.276;2024-02-28T08:07:48;99192.47;;;8.13;99.93
78317;BME280;67572;50.930;18.276;2024-02-28T08:10:51;99199.19;;;8.18;99.58
78317;BME280;67572;50.930;18.276;2024-02-28T08:13:56;99201.31;;;8.27;99.56
78317;BME280;67572;50.930;18.276;2024-02-28T08:17:01;99196.88;;;8.28;99.76
78317;BME280;67572;50.930;18.276;2024-02-28T08:20:05;99207.47;;;8.28;99.82
78317;BME280;67572;50.930;18.276;2024-02-28T08:23:10;99205.78;;;8.11;99.83
78317;BME280;67572;50.930;18.276;2024-02-28T08:26:13;99202.38;;;7.93;100.00
78317;BME280;67572;50.930;18.276;2024-02-28T08:29:17;99208.53;;;8.10;100.00
78317;BME280;67572;50.930;18.276;2024-02-28T08:32:21;99215.72;;;7.92;100.00
78317;BME280;67572;50.930;18.276;2024-02-28T08:35:25;99207.44;;;7.98;100.00
78317;BME280;67572;50.930;18.276;2024-02-28T08:38:28;99216.41;;;7.95;100.00
78317;BME280;67572;50.930;18.276;2024-02-28T08:41:33;99222.63;;;8.10;100.00
78317;BME280;67572;50.930;18.276;2024-02-28T08:44:36;99214.84;;;8.07;100.00
78317;BME280;67572;50.930;18.276;2024-02-28T08:47:41;99219.75;;;8.29;100.00
78317;BME280;67572;50.930;18.276;2024-02-28T08:50:46;99215.22;;;8.31;100.00
78317;BME280;67572;50.930;18.276;2024-02-28T08:53:49;99213.28;;;8.19;100.00
78317;BME280;67572;50.930;18.276;2024-02-28T08:56:54;99215.41;;;8.28;100.00
78317;BME280;67572;50.930;18.276;2024-02-28T09:00:06;99213.50;;;8.30;100.00
78317;BME280;67572;50.930;18.276;2024-02-28T09:03:13;99212.25;;;8.21;99.75
78317;BME280;67572;50.930;18.276;2024-02-28T09:06:16;99215.00;;;8.20;99.94
78317;BME280;67572;50.930;18.276;2024-02-28T09:09:20;99213.19;;;8.20;100.00
78317;BME280;67572;50.930;18.276;2024-02-28T09:12:23;99214.81;;;8.23;100.00
78317;BME280;67572;50.930;18.276;2024-02-28T09:15:27;99213.34;;;8.33;100.00
78317;BME280;67572;50.930;18.276;2024-02-28T09:18:31;99216.66;;;8.52;99.49
78317;BME280;67572;50.930;18.276;2024-02-28T09:21:35;99211.53;;;8.49;98.62
78317;BME280;67572;50.930;18.276;2024-02-28T09:24:39;99219.53;;;8.64;99.25
78317;BME280;67572;50.930;18.276;2024-02-28T09:27:42;99220.47;;;8.63;99.13
78317;BME280;67572;50.930;18.276;2024-02-28T09:30:46;99223.16;;;8.31;99.95
78317;BME280;67572;50.930;18.276;2024-02-28T09:33:56;99221.66;;;8.43;100.00
78317;BME280;67572;50.930;18.276;2024-02-28T09:37:00;99226.84;;;8.44;100.00
78317;BME280;67572;50.930;18.276;2024-02-28T09:40:04;99223.69;;;8.38;100.00
78317;BME280;67572;50.930;18.276;2024-02-28T09:43:15;99231.03;;;8.48;100.00
78317;BME280;67572;50.930;18.276;2024-02-28T09:46:30;99237.84;;;8.52;100.00
78317;BME280;67572;50.930;18.276;2024-02-28T09:49:42;99246.13;;;8.62;100.00
78317;BME280;67572;50.930;18.276;2024-02-28T09:52:45;99246.75;;;8.51;100.00
78317;BME280;67572;50.930;18.276;2024-02-28T09:56:03;99250.34;;;8.50;100.00
78317;BME280;67572;50.930;18.276;2024-02-28T09:59:07;99245.94;;;8.65;100.00
78317;BME280;67572;50.930;18.276;2024-02-28T10:02:11;99256.28;;;8.70;99.75
78317;BME280;67572;50.930;18.276;2024-02-28T10:05:19;99254.09;;;8.46;100.00
78317;BME280;67572;50.930;18.276;2024-02-28T10:08:23;99265.25;;;8.37;100.00
78317;BME280;67572;50.930;18.276;2024-02-28T10:11:26;99266.94;;;8.38;100.00
78317;BME280;67572;50.930;18.276;2024-02-28T10:14:30;99275.16;;;8.18;100.00
78317;BME280;67572;50.930;18.276;2024-02-28T10:17:33;99291.13;;;8.32;100.00
78317;BME280;67572;50.930;18.276;2024-02-28T10:20:38;99286.50;;;8.51;100.00
78317;BME280;67572;50.930;18.276;2024-02-28T10:23:41;99283.09;;;8.33;100.00
78317;BME280;67572;50.930;18.276;2024-02-28T10:26:45;99285.13;;;8.28;100.00
78317;BME280;67572;50.930;18.276;2024-02-28T10:29:57;99295.22;;;8.38;100.00
78317;BME280;67572;50.930;18.276;2024-02-28T10:33:00;99289.91;;;8.22;100.00
78317;BME280;67572;50.930;18.276;2024-02-28T10:36:06;99301.63;;;8.33;100.00
78317;BME280;67572;50.930;18.276;2024-02-28T10:39:10;99292.56;;;8.22;100.00
78317;BME280;67572;50.930;18.276;2024-02-28T10:42:14;99298.56;;;8.25;100.00
78317;BME280;67572;50.930;18.276;2024-02-28T10:45:20;99299.84;;;8.18;100.00
78317;BME280;67572;50.930;18.276;2024-02-28T10:48:49;99300.47;;;8.39;100.00
78317;BME280;67572;50.930;18.276;2024-02-28T10:51:56;99299.53;;;8.40;100.00
78317;BME280;67572;50.930;18.276;2024-02-28T10:55:02;99308.84;;;8.47;100.00
78317;BME280;67572;50.930;18.276;2024-02-28T10:58:08;99297.84;;;8.53;100.00
78317;BME280;67572;50.930;18.276;2024-02-28T11:01:12;99298.38;;;8.44;100.00
78317;BME280;67572;50.930;18.276;2024-02-28T11:04:17;99302.81;;;8.59;100.00
78317;BME280;67572;50.930;18.276;2024-02-28T11:07:21;99315.13;;;8.45;100.00
78317;BME280;67572;50.930;18.276;2024-02-28T11:10:31;99319.69;;;8.43;100.00
78317;BME280;67572;50.930;18.276;2024-02-28T11:13:34;99311.28;;;8.34;100.00
78317;BME280;67572;50.930;18.276;2024-02-28T11:16:37;99309.81;;;8.29;100.00
78317;BME280;67572;50.930;18.276;2024-02-28T11:19:44;99319.78;;;8.41;100.00
78317;BME280;67572;50.930;18.276;2024-02-28T11:22:56;99321.56;;;8.41;100.00
78317;BME280;67572;50.930;18.276;2024-02-28T11:26:00;99319.88;;;8.40;100.00
78317;BME280;67572;50.930;18.276;2024-02-28T11:29:03;99316.41;;;8.53;100.00
78317;BME280;67572;50.930;18.276;2024-02-28T11:32:07;99314.84;;;8.65;100.00
78317;BME280;67572;50.930;18.276;2024-02-28T11:35:13;99320.19;;;8.49;100.00
78317;BME280;67572;50.930;18.276;2024-02-28T11:38:17;99328.72;;;8.39;100.00
78317;BME280;67572;50.930;18.276;2024-02-28T11:41:27;99326.69;;;8.44;100.00
78317;BME280;67572;50.930;18.276;2024-02-28T11:44:30;99326.59;;;8.45;100.00
78317;BME280;67572;50.930;18.276;2024-02-28T11:47:34;99333.19;;;8.54;100.00
78317;BME280;67572;50.930;18.276;2024-02-28T11:50:38;99340.97;;;8.41;100.00
78317;BME280;67572;50.930;18.276;2024-02-28T11:53:42;99337.59;;;8.53;100.00
78317;BME280;67572;50.930;18.276;2024-02-28T11:56:46;99329.41;;;8.26;100.00
78317;BME280;67572;50.930;18.276;2024-02-28T11:59:50;99329.78;;;8.36;100.00
78317;BME280;67572;50.930;18.276;2024-02-28T12:03:04;99319.22;;;8.34;100.00
78317;BME280;67572;50.930;18.276;2024-02-28T12:06:08;99329.34;;;8.44;100.00
78317;BME280;67572;50.930;18.276;2024-02-28T12:09:14;99328.56;;;8.42;100.00
78317;BME280;67572;50.930;18.276;2024-02-28T12:12:28;99327.94;;;8.52;100.00
78317;BME280;67572;50.930;18.276;2024-02-28T12:15:32;99323.41;;;8.70;100.00
78317;BME280;67572;50.930;18.276;2024-02-28T12:18:35;99330.56;;;8.68;100.00
78317;BME280;67572;50.930;18.276;2024-02-28T12:21:39;99330.66;;;8.67;100.00
78317;BME280;67572;50.930;18.276;2024-02-28T12:24:44;99327.16;;;8.66;100.00
78317;BME280;67572;50.930;18.276;2024-02-28T12:27:50;99329.75;;;8.52;100.00
78317;BME280;67572;50.930;18.276;2024-02-28T12:30:54;99329.31;;;8.59;100.00
78317;BME280;67572;50.930;18.276;2024-02-28T12:33:57;99333.75;;;8.59;100.00
78317;BME280;67572;50.930;18.276;2024-02-28T12:37:01;99345.66;;;8.52;100.00
78317;BME280;67572;50.930;18.276;2024-02-28T12:40:09;99348.66;;;8.61;100.00
78317;BME280;67572;50.930;18.276;2024-02-28T12:43:17;99352.50;;;8.56;100.00
78317;BME280;67572;50.930;18.276;2024-02-28T12:46:20;99351.22;;;8.63;100.00
78317;BME280;67572;50.930;18.276;2024-02-28T12:49:24;99355.13;;;8.72;100.00
78317;BME280;67572;50.930;18.276;2024-02-28T12:52:27;99356.28;;;8.82;100.00
78317;BME280;67572;50.930;18.276;2024-02-28T12:55:32;99361.03;;;8.77;100.00
78317;BME280;67572;50.930;18.276;2024-02-28T12:58:35;99363.22;;;8.69;100.00
78317;BME280;67572;50.930;18.276;2024-02-28T13:01:38;99353.66;;;8.82;100.00
78317;BME280;67572;50.930;18.276;2024-02-28T13:04:42;99350.38;;;8.93;100.00
78317;BME280;67572;50.930;18.276;2024-02-28T13:07:45;99357.88;;;9.00;100.00
78317;BME280;67572;50.930;18.276;2024-02-28T13:10:50;99354.13;;;9.18;100.00
78317;BME280;67572;50.930;18.276;2024-02-28T13:13:56;99350.91;;;9.13;100.00
78317;BME280;67572;50.930;18.276;2024-02-28T13:16:59;99349.28;;;9.11;100.00
78317;BME280;67572;50.930;18.276;2024-02-28T13:20:06;99349.97;;;9.14;100.00
78317;BME280;67572;50.930;18.276;2024-02-28T13:23:10;99346.28;;;9.17;100.00
78317;BME280;67572;50.930;18.276;2024-02-28T13:26:15;99347.81;;;9.35;100.00
78317;BME280;67572;50.930;18.276;2024-02-28T13:29:20;99346.06;;;9.64;100.00
78317;BME280;67572;50.930;18.276;2024-02-28T13:32:24;99345.06;;;9.37;100.00
78317;BME280;67572;50.930;18.276;2024-02-28T13:35:27;99351.25;;;9.52;100.00
78317;BME280;67572;50.930;18.276;2024-02-28T13:38:32;99350.31;;;9.38;100.00
78317;BME280;67572;50.930;18.276;2024-02-28T13:41:38;99354.19;;;9.47;100.00
78317;BME280;67572;50.930;18.276;2024-02-28T13:44:42;99354.94;;;9.49;99.68
78317;BME280;67572;50.930;18.276;2024-02-28T13:47:45;99352.22;;;9.65;99.06
78317;BME280;67572;50.930;18.276;2024-02-28T13:50:48;99358.38;;;9.65;99.21
78317;BME280;67572;50.930;18.276;2024-02-28T13:53:52;99362.75;;;9.52;98.84
78317;BME280;67572;50.930;18.276;2024-02-28T13:56:57;99361.97;;;9.64;99.42
78317;BME280;67572;50.930;18.276;2024-02-28T14:00:01;99354.22;;;9.61;99.63
78317;BME280;67572;50.930;18.276;2024-02-28T14:03:11;99366.63;;;9.61;99.36
78317;BME280;67572;50.930;18.276;2024-02-28T14:06:15;99365.13;;;9.71;98.49
78317;BME280;67572;50.930;18.276;2024-02-28T14:09:18;99369.97;;;9.93;97.58
78317;BME280;67572;50.930;18.276;2024-02-28T14:12:23;99358.84;;;9.72;96.50
78317;BME280;67572;50.930;18.276;2024-02-28T14:15:26;99363.41;;;9.70;96.69
78317;BME280;67572;50.930;18.276;2024-02-28T14:18:30;99367.88;;;9.69;96.66
78317;BME280;67572;50.930;18.276;2024-02-28T14:21:34;99376.78;;;9.54;96.87
78317;BME280;67572;50.930;18.276;2024-02-28T14:24:38;99380.06;;;9.43;97.72
78317;BME280;67572;50.930;18.276;2024-02-28T14:27:44;99380.06;;;9.43;97.66
78317;BME280;67572;50.930;18.276;2024-02-28T14:31:47;99390.56;;;9.75;97.88
78317;BME280;67572;50.930;18.276;2024-02-28T14:34:51;99392.66;;;9.40;98.31
78317;BME280;67572;50.930;18.276;2024-02-28T14:37:56;99401.25;;;9.29;99.04
78317;BME280;67572;50.930;18.276;2024-02-28T14:40:59;99399.66;;;9.27;100.00
78317;BME280;67572;50.930;18.276;2024-02-28T14:44:04;99403.84;;;9.31;99.97
78317;BME280;67572;50.930;18.276;2024-02-28T14:47:09;99408.59;;;9.40;99.26
78317;BME280;67572;50.930;18.276;2024-02-28T14:50:12;99408.50;;;9.11;99.47
78317;BME280;67572;50.930;18.276;2024-02-28T14:53:16;99416.59;;;8.94;100.00
78317;BME280;67572;50.930;18.276;2024-02-28T14:56:20;99413.59;;;8.69;100.00
78317;BME280;67572;50.930;18.276;2024-02-28T14:59:25;99422.16;;;8.42;100.00
78317;BME280;67572;50.930;18.276;2024-02-28T15:02:29;99422.97;;;8.27;100.00
78317;BME280;67572;50.930;18.276;2024-02-28T15:05:32;99429.53;;;8.20;100.00
78317;BME280;67572;50.930;18.276;2024-02-28T15:08:36;99433.00;;;8.04;100.00
78317;BME280;67572;50.930;18.276;2024-02-28T15:11:39;99426.53;;;8.10;100.00
78317;BME280;67572;50.930;18.276;2024-02-28T15:14:44;99437.53;;;8.02;100.00
78317;BME280;67572;50.930;18.276;2024-02-28T15:17:47;99439.66;;;7.96;100.00
78317;BME280;67572;50.930;18.276;2024-02-28T15:20:51;99442.31;;;7.96;100.00
78317;BME280;67572;50.930;18.276;2024-02-28T15:23:58;99449.75;;;8.05;100.00
78317;BME280;67572;50.930;18.276;2024-02-28T15:27:03;99458.25;;;8.12;100.00
78317;BME280;67572;50.930;18.276;2024-02-28T15:30:10;99454.28;;;8.03;100.00
78317;BME280;67572;50.930;18.276;2024-02-28T15:33:13;99455.06;;;8.05;100.00
78317;BME280;67572;50.930;18.276;2024-02-28T15:36:16;99459.72;;;8.00;100.00
78317;BME280;67572;50.930;18.276;2024-02-28T15:39:20;99455.78;;;7.91;100.00
78317;BME280;67572;50.930;18.276;2024-02-28T15:42:23;99466.22;;;7.94;100.00
78317;BME280;67572;50.930;18.276;2024-02-28T15:45:28;99471.44;;;7.96;100.00
78317;BME280;67572;50.930;18.276;2024-02-28T15:48:31;99461.63;;;7.98;100.00
78317;BME280;67572;50.930;18.276;2024-02-28T15:51:35;99453.66;;;7.98;100.00
78317;BME280;67572;50.930;18.276;2024-02-28T15:54:39;99459.72;;;8.00;100.00
78317;BME280;67572;50.930;18.276;2024-02-28T15:57:43;99457.22;;;7.81;100.00
78317;BME280;67572;50.930;18.276;2024-02-28T16:00:48;99465.69;;;7.70;100.00
78317;BME280;67572;50.930;18.276;2024-02-28T16:03:54;99466.31;;;7.75;100.00
78317;BME280;67572;50.930;18.276;2024-02-28T16:06:58;99471.38;;;7.80;100.00
78317;BME280;67572;50.930;18.276;2024-02-28T16:10:03;99472.22;;;7.81;100.00
78317;BME280;67572;50.930;18.276;2024-02-28T16:13:07;99473.00;;;7.83;100.00